Time;durP1;ratioP1;P1;durP2;ratioP2;P2;SDS_P1;SDS_P2;PMS_P1;PMS_P2;Temp;Humidity;BMP_temperature;BMP_pressure;BME280_temperature;BME280_humidity;BME280_pressure;Samples;Min_cycle;Max_cycle;Signal;HPM_P1;HPM_P2
2023/09/27 00:02:24;;;;;;;1.00;1.00;;;21.30;72.80;;;;;;5088778;28;20127;-76
2023/09/27 00:04:51;;;;;;;0.90;0.90;;;21.30;72.80;;;;;;5076696;28;20593;-76
2023/09/27 00:07:16;;;;;;;1.50;1.30;;;21.30;72.70;;;;;;5089504;28;20040;-76
2023/09/27 00:09:42;;;;;;;1.27;1.17;;;21.30;72.80;;;;;;5082824;28;20032;-76
2023/09/27 00:12:08;;;;;;;1.10;1.00;;;21.30;72.70;;;;;;5087904;28;20043;-76
2023/09/27 00:14:34;;;;;;;1.20;1.10;;;21.30;72.70;;;;;;5074309;28;20395;-76
2023/09/27 00:17:00;;;;;;;0.80;0.80;;;21.30;72.60;;;;;;5094053;28;20044;-76
2023/09/27 00:19:25;;;;;;;1.05;0.95;;;21.30;73.30;;;;;;5092531;28;20109;-76
2023/09/27 00:21:51;;;;;;;1.17;1.08;;;21.30;72.60;;;;;;5080387;28;20047;-76
2023/09/27 00:24:17;;;;;;;0.80;0.80;;;21.30;72.50;;;;;;5090641;28;20134;-75
2023/09/27 00:26:42;;;;;;;1.60;0.98;;;21.30;72.60;;;;;;5092938;28;20039;-76
2023/09/27 00:29:08;;;;;;;1.85;1.05;;;21.30;73.30;;;;;;5088027;28;20045;-76
2023/09/27 00:31:33;;;;;;;1.30;1.20;;;21.30;72.50;;;;;;5091893;28;20119;-76
2023/09/27 00:33:59;;;;;;;0.80;0.80;;;21.30;72.50;;;;;;5085688;28;20390;-76
2023/09/27 00:36:24;;;;;;;1.42;1.33;;;21.30;72.50;;;;;;5080699;28;20118;-76
2023/09/27 00:38:50;;;;;;;0.95;0.93;;;21.30;72.50;;;;;;5092699;28;20035;-76
2023/09/27 00:41:16;;;;;;;1.15;1.02;;;21.30;72.50;;;;;;5089207;28;20158;-76
2023/09/27 00:43:41;;;;;;;1.02;1.00;;;21.30;72.50;;;;;;5083907;28;20124;-76
2023/09/27 00:46:07;;;;;;;1.02;1.00;;;21.30;72.60;;;;;;5089858;28;20128;-76
2023/09/27 00:48:34;;;;;;;2.03;1.08;;;21.30;72.50;;;;;;5079694;28;20039;-76
2023/09/27 00:51:00;;;;;;;0.90;0.90;;;21.30;72.40;;;;;;5078891;28;20416;-76
2023/09/27 00:53:27;;;;;;;1.30;0.90;;;21.30;72.40;;;;;;5078624;28;21208;-76
2023/09/27 00:55:52;;;;;;;1.80;1.58;;;21.30;72.50;;;;;;5071144;28;20048;-76
2023/09/27 00:58:19;;;;;;;1.08;1.00;;;21.30;72.50;;;;;;5089641;28;20047;-75
2023/09/27 01:00:49;;;;;;;0.90;0.90;;;21.30;72.50;;;;;;5085001;28;20047;-76
2023/09/27 01:03:15;;;;;;;0.90;0.90;;;21.30;72.50;;;;;;5080422;28;20060;-76
2023/09/27 01:05:41;;;;;;;0.93;0.90;;;21.30;72.50;;;;;;5088695;28;20146;-76
2023/09/27 01:08:07;;;;;;;1.00;1.00;;;21.30;72.40;;;;;;5062314;28;20099;-76
2023/09/27 01:10:32;;;;;;;0.90;0.90;;;21.30;72.30;;;;;;5087262;28;20043;-76
2023/09/27 01:12:58;;;;;;;0.90;0.90;;;21.30;72.40;;;;;;5076012;28;20052;-76
2023/09/27 01:15:23;;;;;;;1.13;1.02;;;21.30;72.30;;;;;;5085032;28;20035;-76
2023/09/27 01:17:57;;;;;;;0.93;0.93;;;21.30;72.30;;;;;;5087657;28;20070;-76
2023/09/27 01:20:24;;;;;;;1.20;1.02;;;21.30;72.20;;;;;;5083136;28;20043;-76
2023/09/27 01:22:57;;;;;;;0.70;0.70;;;21.30;72.30;;;;;;5094414;28;20105;-75
2023/09/27 01:25:22;;;;;;;0.97;0.90;;;21.30;72.90;;;;;;5078271;28;20060;-76
2023/09/27 01:27:48;;;;;;;0.90;0.90;;;21.30;72.10;;;;;;5053220;28;20032;-76
2023/09/27 01:30:13;;;;;;;1.35;1.30;;;21.30;72.20;;;;;;5064920;28;20044;-76
2023/09/27 01:32:41;;;;;;;1.00;1.00;;;21.30;72.30;;;;;;5090252;28;20123;-76
2023/09/27 01:35:07;;;;;;;0.98;0.90;;;21.30;72.20;;;;;;5095812;28;20496;-75
2023/09/27 01:37:33;;;;;;;1.10;1.00;;;21.30;72.40;;;;;;5091031;28;20113;-76
2023/09/27 01:39:59;;;;;;;0.90;0.90;;;21.30;72.30;;;;;;5090354;28;20083;-75
2023/09/27 01:42:24;;;;;;;1.05;0.95;;;21.30;72.30;;;;;;5092473;28;20040;-76
2023/09/27 01:44:50;;;;;;;1.13;1.02;;;21.30;72.30;;;;;;5068344;28;20409;-76
2023/09/27 01:47:15;;;;;;;1.23;1.13;;;21.30;72.30;;;;;;5075632;28;20041;-76
2023/09/27 01:49:41;;;;;;;1.20;1.10;;;21.30;72.30;;;;;;5087992;28;20051;-76
2023/09/27 01:52:06;;;;;;;0.90;0.90;;;21.30;72.40;;;;;;5094913;28;20040;-76
2023/09/27 01:54:32;;;;;;;5.65;1.10;;;21.30;72.30;;;;;;5092826;28;20055;-76
2023/09/27 01:56:57;;;;;;;0.82;0.82;;;21.30;73.00;;;;;;5083653;28;20040;-76
2023/09/27 01:59:23;;;;;;;0.80;0.80;;;21.30;72.40;;;;;;5090239;28;20040;-76
2023/09/27 02:01:49;;;;;;;1.38;1.27;;;21.30;72.40;;;;;;5088493;28;20161;-76
2023/09/27 02:04:14;;;;;;;0.90;0.90;;;21.30;72.70;;;;;;5091004;28;20158;-75
2023/09/27 02:06:40;;;;;;;1.08;0.98;;;21.30;72.40;;;;;;5100281;28;20047;-76
2023/09/27 02:09:06;;;;;;;1.05;1.05;;;21.30;72.60;;;;;;5100404;28;20412;-75
2023/09/27 02:11:32;;;;;;;0.70;0.70;;;21.30;72.50;;;;;;5095713;28;20052;-76
2023/09/27 02:13:57;;;;;;;0.95;0.88;;;21.30;72.50;;;;;;5099774;28;20044;-76
2023/09/27 02:16:23;;;;;;;1.17;1.05;;;21.30;72.80;;;;;;5100970;28;20043;-76
2023/09/27 02:18:49;;;;;;;1.23;1.13;;;21.30;72.80;;;;;;5097460;28;20032;-75
2023/09/27 02:21:14;;;;;;;1.52;0.90;;;21.30;72.80;;;;;;5084485;28;20417;-76
2023/09/27 02:23:40;;;;;;;0.88;0.88;;;21.30;72.70;;;;;;5085526;28;20036;-76
2023/09/27 02:26:06;;;;;;;0.90;0.90;;;21.30;72.90;;;;;;5100047;28;20530;-76
2023/09/27 02:28:31;;;;;;;0.88;0.88;;;21.30;72.60;;;;;;5104918;28;20054;-76
2023/09/27 02:30:58;;;;;;;0.80;0.80;;;21.30;72.50;;;;;;5090877;28;20043;-76
2023/09/27 02:33:27;;;;;;;0.85;0.85;;;21.30;72.60;;;;;;5096674;28;20134;-76
2023/09/27 02:35:53;;;;;;;1.05;1.05;;;21.30;72.50;;;;;;5087896;28;20060;-76
2023/09/27 02:38:19;;;;;;;0.90;0.90;;;21.30;72.90;;;;;;5083633;28;20029;-76
2023/09/27 02:40:44;;;;;;;1.05;0.90;;;21.30;72.70;;;;;;5102453;28;20044;-76
2023/09/27 02:43:10;;;;;;;0.80;0.80;;;21.30;72.90;;;;;;5100387;28;20556;-76
2023/09/27 02:45:36;;;;;;;1.20;1.10;;;21.30;73.00;;;;;;5093178;28;20039;-76
2023/09/27 02:48:01;;;;;;;1.90;0.98;;;21.30;72.80;;;;;;5087827;28;20047;-76
2023/09/27 02:50:27;;;;;;;0.90;0.90;;;21.30;72.50;;;;;;5094413;28;20032;-76
2023/09/27 02:52:52;;;;;;;1.10;1.00;;;21.30;72.90;;;;;;5092969;28;20666;-76
2023/09/27 02:55:18;;;;;;;1.10;1.00;;;21.30;72.50;;;;;;5095989;28;20040;-76
2023/09/27 02:57:50;;;;;;;1.10;1.00;;;21.30;72.80;;;;;;5086859;28;20047;-76
2023/09/27 03:00:16;;;;;;;0.82;0.75;;;21.20;72.70;;;;;;5092991;28;20094;-76
2023/09/27 03:02:42;;;;;;;1.20;0.98;;;21.30;72.90;;;;;;5075668;28;20086;-76
2023/09/27 03:05:09;;;;;;;1.05;0.95;;;21.30;73.10;;;;;;5092226;28;20039;-76
2023/09/27 03:07:35;;;;;;;1.02;1.00;;;21.30;73.00;;;;;;5092159;28;20091;-76
2023/09/27 03:10:11;;;;;;;0.70;0.70;;;21.30;72.80;;;;;;5089876;28;20125;-76
2023/09/27 03:12:38;;;;;;;0.70;0.70;;;21.20;72.80;;;;;;5072470;28;20769;-76
2023/09/27 03:15:05;;;;;;;1.10;0.90;;;21.30;72.90;;;;;;5074554;28;20089;-76
2023/09/27 03:17:30;;;;;;;0.90;0.90;;;21.20;72.90;;;;;;5076174;28;20513;-76
2023/09/27 03:19:56;;;;;;;1.10;0.80;;;21.20;73.00;;;;;;5095321;28;20098;-76
2023/09/27 03:22:22;;;;;;;0.90;0.90;;;21.20;72.80;;;;;;5100504;28;20039;-76
2023/09/27 03:24:47;;;;;;;0.82;0.82;;;21.20;72.90;;;;;;5095361;28;20028;-76
2023/09/27 03:27:13;;;;;;;1.02;0.90;;;21.20;72.90;;;;;;5089242;28;20071;-76
2023/09/27 03:29:39;;;;;;;1.20;0.88;;;21.20;72.70;;;;;;5085951;28;20179;-76
2023/09/27 03:32:05;;;;;;;1.58;1.13;;;21.20;72.80;;;;;;5090487;28;20047;-76
2023/09/27 03:34:31;;;;;;;1.20;1.10;;;21.30;72.80;;;;;;5098995;28;20051;-76
2023/09/27 03:36:57;;;;;;;1.20;1.10;;;21.30;73.00;;;;;;5098807;28;20500;-76
2023/09/27 03:39:23;;;;;;;1.63;0.90;;;21.20;72.70;;;;;;5077912;28;20071;-76
2023/09/27 03:41:50;;;;;;;1.15;1.08;;;21.20;73.70;;;;;;5107970;27;20099;-76
2023/09/27 03:44:16;;;;;;;0.93;0.88;;;21.20;72.90;;;;;;5079136;28;20032;-76
2023/09/27 03:46:41;;;;;;;0.98;0.93;;;21.20;72.90;;;;;;5096401;28;20040;-76
2023/09/27 03:49:07;;;;;;;1.27;1.20;;;21.20;72.90;;;;;;5097469;28;20050;-76
2023/09/27 03:51:32;;;;;;;1.13;1.00;;;21.20;72.50;;;;;;5095391;28;20039;-76
2023/09/27 03:53:58;;;;;;;1.65;1.02;;;21.20;72.50;;;;;;5092736;28;20143;-76
2023/09/27 03:56:23;;;;;;;0.93;0.93;;;21.20;72.80;;;;;;5098608;28;20119;-76
2023/09/27 03:58:49;;;;;;;1.00;0.90;;;21.20;72.90;;;;;;5093096;28;20044;-76
2023/09/27 04:01:15;;;;;;;1.75;1.30;;;21.20;72.70;;;;;;5097003;28;20528;-76
2023/09/27 04:03:41;;;;;;;0.90;0.90;;;21.20;72.60;;;;;;5091098;28;20040;-76
2023/09/27 04:06:06;;;;;;;1.20;1.10;;;21.20;72.60;;;;;;5096430;28;20046;-76
2023/09/27 04:08:33;;;;;;;1.20;0.95;;;21.20;72.80;;;;;;5096811;28;20138;-77
2023/09/27 04:11:01;;;;;;;0.93;0.82;;;21.20;72.70;;;;;;5089518;28;20041;-76
2023/09/27 04:13:27;;;;;;;1.67;1.13;;;21.20;72.60;;;;;;5096914;28;20035;-76
2023/09/27 04:15:52;;;;;;;1.27;0.95;;;21.20;72.70;;;;;;5090515;28;20130;-76
2023/09/27 04:18:18;;;;;;;1.25;0.80;;;21.20;72.60;;;;;;5095652;28;20070;-77
2023/09/27 04:20:43;;;;;;;1.48;1.08;;;21.20;72.80;;;;;;5089086;28;20218;-76
2023/09/27 04:23:09;;;;;;;1.35;1.13;;;21.20;73.00;;;;;;5097331;28;20068;-76
2023/09/27 04:25:34;;;;;;;1.08;1.00;;;21.20;72.60;;;;;;5104054;28;20044;-76
2023/09/27 04:28:00;;;;;;;0.60;0.60;;;21.20;72.60;;;;;;5098872;28;20047;-76
2023/09/27 04:30:26;;;;;;;1.00;0.90;;;21.20;72.60;;;;;;5094852;28;20405;-76
2023/09/27 04:32:53;;;;;;;0.70;0.70;;;21.20;73.50;;;;;;5098029;28;20621;-76
2023/09/27 04:35:19;;;;;;;1.48;1.20;;;21.20;72.80;;;;;;5095380;28;20048;-76
2023/09/27 04:37:45;;;;;;;0.77;0.70;;;21.20;72.90;;;;;;5114432;27;20051;-76
2023/09/27 04:40:11;;;;;;;1.00;0.80;;;21.20;72.50;;;;;;5098885;28;20118;-76
2023/09/27 04:42:40;;;;;;;1.20;1.10;;;21.20;72.40;;;;;;5081610;28;20048;-76
2023/09/27 04:45:07;;;;;;;1.02;0.93;;;21.20;72.40;;;;;;5073162;28;20036;-76
2023/09/27 04:47:32;;;;;;;1.40;1.10;;;21.20;72.50;;;;;;5089799;27;20577;-76
2023/09/27 04:49:58;;;;;;;0.95;0.95;;;21.20;72.50;;;;;;5065796;28;20052;-76
2023/09/27 04:52:24;;;;;;;0.60;0.60;;;21.20;72.60;;;;;;5053449;28;20039;-76
2023/09/27 04:54:54;;;;;;;0.88;0.85;;;21.20;73.30;;;;;;5070420;28;20762;-76
2023/09/27 04:57:20;;;;;;;0.70;0.70;;;21.20;72.40;;;;;;5077680;28;20048;-76
2023/09/27 04:59:46;;;;;;;0.80;0.80;;;21.20;72.50;;;;;;5082796;28;20395;-76
2023/09/27 05:02:11;;;;;;;0.65;0.65;;;21.20;72.60;;;;;;5104240;27;20052;-76
2023/09/27 05:04:37;;;;;;;0.80;0.80;;;21.20;72.40;;;;;;5087640;28;20047;-76
2023/09/27 05:07:03;;;;;;;0.77;0.77;;;21.20;72.40;;;;;;5091378;28;20047;-76
2023/09/27 05:09:29;;;;;;;1.10;1.00;;;21.20;72.40;;;;;;5091179;28;20050;-76
2023/09/27 05:11:54;;;;;;;0.70;0.70;;;21.20;72.40;;;;;;5086865;28;20040;-76
2023/09/27 05:14:20;;;;;;;1.02;0.93;;;21.20;72.30;;;;;;5092481;28;20517;-76
2023/09/27 05:16:46;;;;;;;0.93;0.93;;;21.20;72.50;;;;;;5095022;28;20047;-76
2023/09/27 05:19:12;;;;;;;0.73;0.73;;;21.20;72.40;;;;;;5094817;28;20056;-75
2023/09/27 05:21:38;;;;;;;0.65;0.63;;;21.20;72.30;;;;;;5093812;28;20044;-76
2023/09/27 05:24:04;;;;;;;0.77;0.77;;;21.20;72.40;;;;;;5081868;28;20082;-76
2023/09/27 05:26:29;;;;;;;0.80;0.80;;;21.20;72.30;;;;;;5087847;28;20093;-76
2023/09/27 05:28:55;;;;;;;0.80;0.70;;;21.20;72.30;;;;;;5090321;28;20056;-76
2023/09/27 05:31:20;;;;;;;1.05;0.85;;;21.20;72.30;;;;;;5084512;28;20043;-76
2023/09/27 05:33:46;;;;;;;0.95;0.80;;;21.20;72.40;;;;;;5084315;28;20493;-76
2023/09/27 05:36:12;;;;;;;0.80;0.80;;;21.20;72.30;;;;;;5089265;28;20050;-76
2023/09/27 05:38:38;;;;;;;0.70;0.70;;;21.20;72.30;;;;;;5084723;28;20047;-76
2023/09/27 05:41:04;;;;;;;0.90;0.80;;;21.20;72.30;;;;;;5093701;28;20046;-76
2023/09/27 05:43:29;;;;;;;0.80;0.80;;;21.20;72.40;;;;;;5090152;28;20409;-76
2023/09/27 05:45:57;;;;;;;0.70;0.68;;;21.20;72.40;;;;;;5094703;28;20032;-76
2023/09/27 05:48:23;;;;;;;0.95;0.90;;;21.20;72.30;;;;;;5091042;28;20054;-76
2023/09/27 05:50:48;;;;;;;0.73;0.73;;;21.20;72.30;;;;;;5092509;28;20039;-76
2023/09/27 05:53:16;;;;;;;0.85;0.85;;;21.20;73.00;;;;;;5092077;28;20059;-76
2023/09/27 05:55:42;;;;;;;0.90;0.90;;;21.10;72.40;;;;;;5090925;28;20060;-76
2023/09/27 05:58:08;;;;;;;0.73;0.73;;;21.10;72.50;;;;;;5095760;28;20036;-76
2023/09/27 06:00:42;;;;;;;0.70;0.70;;;21.10;72.50;;;;;;5084788;28;20131;-75
2023/09/27 06:03:08;;;;;;;0.80;0.80;;;21.20;72.50;;;;;;5096247;28;20036;-76
2023/09/27 06:05:34;;;;;;;1.95;1.20;;;21.20;72.40;;;;;;5082447;28;21546;-76
2023/09/27 06:07:59;;;;;;;0.93;0.90;;;21.20;73.00;;;;;;5090123;28;20671;-76
2023/09/27 06:10:26;;;;;;;0.63;0.63;;;21.20;72.40;;;;;;5084952;28;20413;-78
2023/09/27 06:12:52;;;;;;;0.82;0.82;;;21.20;72.40;;;;;;5086285;28;20035;-76
2023/09/27 06:15:18;;;;;;;1.27;0.90;;;21.20;72.50;;;;;;5090769;28;20054;-75
2023/09/27 06:17:43;;;;;;;0.98;0.90;;;21.20;72.30;;;;;;5076557;28;20042;-75
2023/09/27 06:20:15;;;;;;;1.45;0.70;;;21.20;73.40;;;;;;5094020;28;20420;-75
2023/09/27 06:22:42;;;;;;;0.90;0.90;;;21.20;72.50;;;;;;5070365;28;20062;-77
2023/09/27 06:25:08;;;;;;;1.08;1.00;;;21.20;72.50;;;;;;4735358;28;10000255;-79
2023/09/27 06:27:34;;;;;;;0.80;0.80;;;21.20;72.60;;;;;;5084232;28;20420;-78
2023/09/27 06:30:00;;;;;;;0.77;0.77;;;21.20;72.80;;;;;;5090232;28;20071;-77
2023/09/27 06:32:26;;;;;;;1.00;0.93;;;21.20;72.50;;;;;;5089810;28;20036;-78
2023/09/27 06:34:52;;;;;;;1.35;1.25;;;21.20;72.70;;;;;;5090883;28;20134;-81
2023/09/27 06:37:18;;;;;;;1.70;1.60;;;21.20;72.20;;;;;;5090848;28;20036;-79
2023/09/27 06:39:44;;;;;;;2.15;2.05;;;21.00;72.60;;;;;;5086164;28;20052;-80
2023/09/27 06:42:09;;;;;;;2.60;2.30;;;21.00;72.80;;;;;;5085845;28;20039;-80
2023/09/27 06:44:35;;;;;;;3.08;2.60;;;21.00;72.80;;;;;;5087618;28;20039;-79
2023/09/27 06:47:00;;;;;;;3.28;2.63;;;21.00;73.00;;;;;;5087391;28;20131;-79
2023/09/27 06:49:26;;;;;;;3.47;2.42;;;20.90;73.00;;;;;;5091971;28;20047;-79
2023/09/27 06:51:53;;;;;;;3.20;2.40;;;20.90;73.10;;;;;;5088387;28;20044;-79
2023/09/27 06:54:18;;;;;;;2.92;2.47;;;20.90;73.00;;;;;;5094849;28;20043;-79
2023/09/27 06:56:44;;;;;;;3.63;2.47;;;20.90;73.00;;;;;;5092230;28;20052;-78
2023/09/27 06:59:09;;;;;;;4.68;3.00;;;20.80;73.20;;;;;;5097135;28;20524;-78
2023/09/27 07:01:35;;;;;;;4.10;3.17;;;20.80;73.00;;;;;;5084319;28;20417;-79
2023/09/27 07:04:03;;;;;;;3.55;2.88;;;20.80;73.20;;;;;;5057371;28;20036;-79
2023/09/27 07:06:29;;;;;;;5.63;3.08;;;20.80;73.20;;;;;;5087131;28;20055;-79
2023/09/27 07:08:57;;;;;;;4.55;2.80;;;20.80;73.10;;;;;;5075458;28;20039;-80
2023/09/27 07:11:23;;;;;;;5.50;2.67;;;20.70;73.40;;;;;;5087888;28;20087;-78
2023/09/27 07:13:49;;;;;;;8.18;3.60;;;20.70;73.30;;;;;;5089113;28;20083;-81
2023/09/27 07:16:29;;;;;;;4.68;2.90;;;20.60;73.40;;;;;;5085242;28;20048;-80
2023/09/27 07:18:55;;;;;;;2.63;2.35;;;20.50;73.60;;;;;;5081304;28;20043;-79
2023/09/27 07:21:21;;;;;;;4.10;2.90;;;20.50;73.80;;;;;;5084831;28;20521;-80
2023/09/27 07:23:47;;;;;;;5.43;3.20;;;20.50;73.70;;;;;;5075161;28;20053;-79
2023/09/27 07:26:13;;;;;;;3.47;3.00;;;20.50;73.70;;;;;;5084603;28;20051;-79
2023/09/27 07:28:39;;;;;;;3.85;2.47;;;20.50;73.70;;;;;;5090462;28;20039;-80
2023/09/27 07:31:05;;;;;;;4.90;2.47;;;20.50;73.80;;;;;;5083265;28;20051;-79
2023/09/27 07:33:31;;;;;;;3.85;2.55;;;20.50;74.10;;;;;;5079551;28;20055;-78
2023/09/27 07:35:58;;;;;;;5.53;2.85;;;20.50;74.40;;;;;;5070409;28;20096;-79
2023/09/27 07:38:24;;;;;;;3.75;2.65;;;20.50;74.50;;;;;;5081623;28;20059;-78
2023/09/27 07:40:50;;;;;;;2.88;2.10;;;20.50;74.50;;;;;;5083009;28;20055;-80
2023/09/27 07:43:16;;;;;;;2.80;2.53;;;20.50;74.50;;;;;;5081719;28;20093;-80
2023/09/27 07:45:46;;;;;;;3.47;2.50;;;20.50;74.50;;;;;;5091437;28;20028;-80
2023/09/27 07:48:12;;;;;;;5.25;2.38;;;20.40;74.90;;;;;;5086750;28;20548;-81
2023/09/27 07:50:39;;;;;;;3.85;2.40;;;20.40;74.90;;;;;;5082907;28;20044;-79
2023/09/27 07:53:06;;;;;;;5.32;3.03;;;20.40;74.90;;;;;;5059665;28;20457;-80
2023/09/27 07:55:32;;;;;;;2.50;2.25;;;20.40;75.00;;;;;;5091176;28;20036;-79
2023/09/27 07:57:58;;;;;;;6.20;2.63;;;20.40;75.00;;;;;;5087255;28;20421;-79
2023/09/27 08:00:30;;;;;;;3.40;2.00;;;20.40;75.20;;;;;;5073056;28;20052;-78
2023/09/27 08:02:58;;;;;;;4.55;2.50;;;20.40;75.20;;;;;;5094498;28;20052;-80
2023/09/27 08:05:24;;;;;;;4.30;2.20;;;20.40;75.30;;;;;;5062926;28;20052;-82
2023/09/27 08:07:50;;;;;;;2.45;2.03;;;20.40;75.30;;;;;;5081618;28;20040;-80
2023/09/27 08:10:17;;;;;;;3.03;2.22;;;20.40;75.30;;;;;;5088201;28;20043;-79
2023/09/27 08:12:43;;;;;;;3.42;2.38;;;20.40;75.60;;;;;;5088350;28;20047;-79
2023/09/27 08:15:09;;;;;;;3.03;2.10;;;20.40;75.60;;;;;;5116152;27;20044;-79
2023/09/27 08:17:35;;;;;;;4.68;2.20;;;20.40;75.70;;;;;;5095376;28;20035;-79
2023/09/27 08:20:05;;;;;;;4.70;2.58;;;20.40;75.50;;;;;;5084041;28;20403;-79
2023/09/27 08:22:33;;;;;;;3.22;2.17;;;20.50;75.50;;;;;;5061209;28;20067;-79
2023/09/27 08:24:58;;;;;;;4.00;2.10;;;20.50;75.40;;;;;;5094503;28;20043;-78
2023/09/27 08:27:24;;;;;;;3.75;2.10;;;20.50;75.50;;;;;;5085136;28;20088;-79
2023/09/27 08:29:50;;;;;;;3.38;1.90;;;20.60;75.20;;;;;;5087444;28;20130;-78
2023/09/27 08:32:16;;;;;;;3.22;2.00;;;20.60;75.00;;;;;;5087054;28;20120;-80
2023/09/27 08:34:41;;;;;;;4.68;2.35;;;20.70;74.90;;;;;;5084443;28;20044;-80
2023/09/27 08:37:07;;;;;;;3.72;2.05;;;20.60;74.90;;;;;;5095731;28;20391;-80
2023/09/27 08:39:32;;;;;;;5.03;2.15;;;20.70;74.80;;;;;;5083874;28;20036;-80
2023/09/27 08:41:58;;;;;;;2.88;1.80;;;20.70;74.80;;;;;;5094396;28;20561;-80
2023/09/27 08:44:24;;;;;;;1.92;1.42;;;20.70;74.80;;;;;;5082809;28;20040;-79
2023/09/27 08:46:54;;;;;;;4.40;2.15;;;20.70;74.90;;;;;;5081582;28;20123;-80
2023/09/27 08:49:20;;;;;;;3.40;2.13;;;20.70;74.80;;;;;;5070501;28;20356;-78
2023/09/27 08:51:45;;;;;;;1.90;1.60;;;20.70;75.00;;;;;;5079242;28;20047;-85
2023/09/27 08:54:16;;;;;;;3.50;1.83;;;20.70;75.00;;;;;;5050347;28;20037;-79
2023/09/27 08:56:44;;;;;;;3.10;1.90;;;20.70;75.10;;;;;;5092455;28;20036;-79
2023/09/27 08:59:10;;;;;;;5.07;2.40;;;20.70;75.50;;;;;;5077239;28;20084;-78
2023/09/27 09:01:36;;;;;;;3.45;1.67;;;20.60;75.40;;;;;;5072546;28;20063;-80
2023/09/27 09:04:02;;;;;;;4.75;2.30;;;20.70;75.40;;;;;;5052892;28;20059;-79
2023/09/27 09:06:28;;;;;;;2.75;1.75;;;20.60;76.30;;;;;;5058136;28;20036;-77
2023/09/27 09:08:53;;;;;;;2.30;2.10;;;20.70;75.60;;;;;;5078794;28;20063;-79
2023/09/27 09:11:19;;;;;;;3.17;1.75;;;20.70;75.80;;;;;;5081445;28;20100;-79
2023/09/27 09:14:03;;;;;;;3.38;1.85;;;20.70;75.90;;;;;;5078451;28;20063;-78
2023/09/27 09:16:39;;;;;;;2.28;2.08;;;20.80;75.60;;;;;;5082361;28;20040;-79
2023/09/27 09:19:25;;;;;;;2.83;1.67;;;20.80;75.50;;;;;;5078949;28;20085;-79
2023/09/27 09:22:05;;;;;;;2.55;2.30;;;20.80;75.60;;;;;;5081398;28;21337;-79
2023/09/27 09:24:35;;;;;;;4.07;1.95;;;20.80;75.70;;;;;;5080245;28;20044;-80
2023/09/27 09:27:10;;;;;;;3.47;1.80;;;20.80;76.60;;;;;;5087875;28;20032;-80
2023/09/27 09:29:48;;;;;;;2.45;1.63;;;20.90;75.80;;;;;;5084621;28;20418;-78
2023/09/27 09:32:19;;;;;;;3.15;1.90;;;20.80;75.70;;;;;;5090733;28;20548;-78
2023/09/27 09:34:46;;;;;;;3.80;2.22;;;20.80;75.80;;;;;;5089489;28;20413;-78
2023/09/27 09:37:18;;;;;;;3.83;2.10;;;20.80;75.70;;;;;;5090304;28;20100;-77
2023/09/27 09:39:44;;;;;;;3.67;2.03;;;20.80;75.50;;;;;;5062502;28;20439;-78
2023/09/27 09:42:10;;;;;;;3.15;1.80;;;20.90;75.80;;;;;;5085764;28;20520;-78
2023/09/27 09:44:35;;;;;;;6.40;1.80;;;20.80;75.60;;;;;;5082683;28;20032;-78
2023/09/27 09:47:11;;;;;;;3.97;1.98;;;20.90;75.70;;;;;;5082711;28;20043;-78
2023/09/27 09:49:37;;;;;;;2.47;1.77;;;20.80;75.70;;;;;;5106267;28;20116;-78
2023/09/27 09:52:03;;;;;;;1.90;1.60;;;20.90;75.70;;;;;;5090317;28;20501;-79
2023/09/27 09:54:37;;;;;;;1.70;1.35;;;20.90;75.70;;;;;;5094274;28;20055;-77
2023/09/27 09:57:05;;;;;;;4.33;2.07;;;20.90;75.70;;;;;;5083056;28;20127;-77
2023/09/27 09:59:35;;;;;;;1.75;1.55;;;21.00;76.00;;;;;;5085558;28;20296;-78
2023/09/27 10:02:00;;;;;;;1.80;1.67;;;20.90;75.80;;;;;;5094947;28;20040;-78
2023/09/27 10:04:26;;;;;;;2.50;2.00;;;20.90;75.90;;;;;;5063253;28;20428;-78
2023/09/27 10:06:52;;;;;;;6.32;2.10;;;20.90;75.90;;;;;;5087773;28;20040;-78
2023/09/27 10:09:18;;;;;;;1.98;1.65;;;20.90;76.00;;;;;;5089015;28;20064;-77
2023/09/27 10:11:46;;;;;;;2.75;1.73;;;20.90;76.10;;;;;;5088055;28;20036;-76
2023/09/27 10:14:12;;;;;;;3.30;1.77;;;20.80;76.30;;;;;;5095138;28;20036;-77
2023/09/27 10:16:37;;;;;;;4.57;2.30;;;20.90;77.00;;;;;;5107535;28;20032;-79
2023/09/27 10:19:05;;;;;;;2.17;1.77;;;20.80;76.20;;;;;;5071435;28;20721;-79
2023/09/27 10:21:31;;;;;;;2.45;1.50;;;20.90;76.40;;;;;;5091994;28;20514;-77
2023/09/27 10:23:58;;;;;;;3.53;1.40;;;20.90;76.50;;;;;;5103769;28;20047;-78
2023/09/27 10:26:26;;;;;;;3.20;2.00;;;20.90;76.60;;;;;;5062647;28;20031;-78
2023/09/27 10:29:03;;;;;;;1.65;1.55;;;20.90;76.60;;;;;;5097333;28;20044;-77
2023/09/27 10:31:33;;;;;;;2.42;1.13;;;20.90;76.60;;;;;;5084894;28;20098;-79
2023/09/27 10:33:58;;;;;;;1.70;1.60;;;21.00;77.30;;;;;;5063345;28;20128;-78
2023/09/27 10:36:24;;;;;;;1.88;1.70;;;21.00;77.80;;;;;;5092651;28;20210;-80
2023/09/27 10:38:49;;;;;;;2.92;1.90;;;21.10;78.30;;;;;;5091148;28;20508;-79
2023/09/27 10:41:38;;;;;;;1.95;1.40;;;21.10;78.10;;;;;;5087053;28;20432;-79
2023/09/27 10:44:04;;;;;;;1.50;1.40;;;21.10;77.80;;;;;;5098257;28;20045;-79
2023/09/27 10:46:45;;;;;;;1.73;1.48;;;21.00;77.90;;;;;;5097021;28;20055;-79
2023/09/27 10:49:11;;;;;;;3.40;1.35;;;21.10;77.70;;;;;;5118339;27;20039;-79
2023/09/27 10:51:37;;;;;;;2.35;1.60;;;21.10;77.50;;;;;;5093985;28;20043;-78
2023/09/27 10:54:08;;;;;;;2.13;1.70;;;21.10;77.50;;;;;;5095459;28;20509;-78
2023/09/27 10:56:33;;;;;;;1.95;1.73;;;21.10;77.50;;;;;;5093137;28;20028;-79
2023/09/27 10:58:59;;;;;;;2.00;1.67;;;21.10;77.20;;;;;;5094523;28;20409;-80
2023/09/27 11:01:25;;;;;;;1.75;1.63;;;21.10;78.40;;;;;;5111232;27;20035;-77
2023/09/27 11:04:00;;;;;;;2.15;1.67;;;21.20;77.80;;;;;;5095477;28;20564;-79
2023/09/27 11:06:27;;;;;;;2.00;1.55;;;21.20;77.30;;;;;;5096783;28;20031;-78
2023/09/27 11:09:16;;;;;;;1.52;1.42;;;21.20;77.50;;;;;;5091712;28;20051;-79
2023/09/27 11:11:45;;;;;;;2.05;1.70;;;21.20;77.10;;;;;;5087211;28;20181;-80
2023/09/27 11:14:11;;;;;;;2.63;1.63;;;21.30;77.80;;;;;;5099254;28;20043;-79
2023/09/27 11:16:36;;;;;;;1.73;1.63;;;21.30;77.70;;;;;;5102205;28;20505;-79
2023/09/27 11:19:04;;;;;;;2.00;1.77;;;21.30;76.90;;;;;;5097928;28;20054;-80
2023/09/27 11:21:30;;;;;;;2.17;1.75;;;21.30;76.80;;;;;;5084165;28;20044;-80
2023/09/27 11:24:00;;;;;;;2.10;1.60;;;21.40;76.50;;;;;;5081578;28;20530;-79
2023/09/27 11:26:31;;;;;;;1.63;1.52;;;21.40;76.50;;;;;;5083205;28;20040;-79
2023/09/27 11:29:04;;;;;;;1.50;1.40;;;21.40;76.30;;;;;;5068315;28;20051;-78
2023/09/27 11:31:30;;;;;;;1.85;1.63;;;21.40;76.30;;;;;;5094456;28;20088;-78
2023/09/27 11:34:18;;;;;;;1.52;1.40;;;21.40;76.20;;;;;;5086888;28;20032;-80
2023/09/27 11:36:57;;;;;;;1.95;1.42;;;21.40;76.50;;;;;;5095793;28;20073;-80
2023/09/27 11:39:27;;;;;;;1.85;1.70;;;21.40;76.40;;;;;;5070976;28;20040;-79
2023/09/27 11:41:59;;;;;;;2.42;1.52;;;21.40;76.30;;;;;;5087832;28;20055;-78
2023/09/27 11:44:26;;;;;;;2.10;1.60;;;21.40;76.30;;;;;;5099099;28;20590;-78
2023/09/27 11:47:02;;;;;;;2.00;1.55;;;21.40;76.10;;;;;;5095600;28;20153;-79
2023/09/27 11:49:28;;;;;;;1.70;1.60;;;21.40;76.20;;;;;;5097800;28;20059;-78
2023/09/27 11:51:53;;;;;;;2.58;1.42;;;21.40;76.40;;;;;;5095688;28;20032;-77
2023/09/27 11:54:19;;;;;;;1.70;1.60;;;21.40;76.30;;;;;;5087196;28;20145;-77
2023/09/27 11:56:44;;;;;;;1.60;1.50;;;21.40;76.50;;;;;;5094786;28;20020;-73
2023/09/27 11:59:10;;;;;;;1.65;1.55;;;21.40;76.30;;;;;;5097278;28;20036;-73
2023/09/27 12:01:36;;;;;;;1.63;1.48;;;21.40;76.30;;;;;;5098331;28;20036;-73
2023/09/27 12:04:02;;;;;;;2.38;2.17;;;21.40;76.20;;;;;;5090485;28;20048;-73
2023/09/27 12:06:29;;;;;;;2.67;1.80;;;21.40;76.40;;;;;;5092677;28;20039;-73
2023/09/27 12:08:58;;;;;;;1.70;1.50;;;21.40;76.20;;;;;;5093857;28;20135;-73
2023/09/27 12:11:24;;;;;;;1.63;1.52;;;21.40;76.10;;;;;;5094460;28;20459;-73
2023/09/27 12:13:50;;;;;;;2.00;1.90;;;21.40;76.30;;;;;;5095728;28;20072;-72
2023/09/27 12:16:17;;;;;;;1.58;1.48;;;21.40;76.30;;;;;;5094083;28;20043;-72
2023/09/27 12:18:43;;;;;;;1.80;1.70;;;21.50;76.30;;;;;;5093242;28;20505;-74
2023/09/27 12:21:09;;;;;;;2.13;1.92;;;21.50;76.90;;;;;;5092936;28;20054;-72
2023/09/27 12:23:34;;;;;;;2.00;1.80;;;21.50;75.90;;;;;;5091862;28;20043;-72
2023/09/27 12:26:00;;;;;;;1.83;1.63;;;21.50;76.00;;;;;;5091261;28;20041;-73
2023/09/27 12:28:25;;;;;;;2.20;2.10;;;21.50;75.90;;;;;;5086472;28;20048;-73
2023/09/27 12:30:51;;;;;;;2.00;1.80;;;21.50;76.10;;;;;;5090731;28;20051;-73
2023/09/27 12:33:17;;;;;;;1.60;1.50;;;21.50;76.20;;;;;;5071303;28;20123;-72
2023/09/27 12:35:44;;;;;;;1.70;1.60;;;21.50;76.30;;;;;;5086820;28;20144;-73
2023/09/27 12:38:10;;;;;;;2.10;1.98;;;21.50;76.30;;;;;;5077311;28;20040;-74
2023/09/27 12:40:37;;;;;;;3.50;1.90;;;21.50;76.40;;;;;;5095838;28;20043;-73
2023/09/27 12:43:04;;;;;;;1.92;1.70;;;21.50;76.40;;;;;;5103088;27;20043;-74
2023/09/27 12:45:30;;;;;;;1.60;1.50;;;21.50;76.50;;;;;;5092597;28;20048;-73